Portada
METAR-TAF:

METAR-TAF

Aeroports :

Base Naval de Rota

Rota, Espanya

latitud: 36-39N, longitud: 006-21W, altitud: 26 m

Observació

L'informe es va fer fa 18 minuts, a les 17:00 UTC
Vent 18 kt del Sud, variant entre Sud-Est i Sud/Sud-Oest
Temperatura 23°C
Humitat 73%
Pressió 1015 hPa
Visibilitat 10 km o més
sense núvols per sota de 1500 mi sense presència de cumulonimbus.

METAR: LERT 181700Z 18018KT 140V200 CAVOK 23/18 Q1015 NOSIG

Hora: 19:18 (17:18 UTC)

Pronòstic

L'informe es va fer fa 3 hores i 18 minuts, a les 14:00 UTC
Pronòstic vàlid del 18 a les 15 UTC al 18 a les 24 UTC
Vent 14 kt del Sud
Visibilitat 10 km o més
sense núvols per sota de 1500 mi sense presència de cumulonimbus.

TAF: LERT 181400Z 1815/1824 19014KT CAVOK

Observacions i pronòstics meteorològics de més de 4000 aeroports (METAR i TAF).

Les estacions disponibles són els punts grocs i vermells al mapa.

Posi el ratolí al punt desitjat per veure el nom de l'estació.

Feu clic per veure les observacions i els pronòstics meteorològics.

Per canviar el mapa: feu clic els botons verds amb una creu de color negre per apropar; al botó verd amb un guió per allunyar la imatge; o en les fletxes verdes per a mapes adjacents.


METAR-TAF: